Terminal Aerodrome Forecast
Issued by NWS

Home | Current Version | Previous Version | Text Only | Print | Product List | Glossary On
Versions: 1 2 3 4 5 6 7 8 9 10 11 12 13 14 15 16 17 18
000
FTUS45 KFGZ 301700
TAFGCN
TAF
KGCN 301732Z 3018/3118 07009KT 6SM -SHRA OVC025
     FM302100 11008KT 3SM -RA BR BKN005 OVC025
      TEMPO 3021/3101 1SM -RA BR OVC004
     FM310100 VRB03KT 5SM -SHRA BKN025 OVC040=

USA.gov is the U.S. government's official web portal to all federal, state and local government web resources and services.